sensor_id;sensor_type;location;lat;lon;timestamp;P1;durP1;ratioP1;P2;durP2;ratioP2
31347;SDS011;21711;49.708;18.568;2023-08-07T00:02:12;6.60;;;1.80;;
31347;SDS011;21711;49.708;18.568;2023-08-07T00:04:39;2.08;;;1.70;;
31347;SDS011;21711;49.708;18.568;2023-08-07T00:07:06;2.53;;;1.98;;
31347;SDS011;21711;49.708;18.568;2023-08-07T00:09:34;4.20;;;1.63;;
31347;SDS011;21711;49.708;18.568;2023-08-07T00:12:01;2.97;;;1.50;;
31347;SDS011;21711;49.708;18.568;2023-08-07T00:14:29;1.55;;;1.40;;
31347;SDS011;21711;49.708;18.568;2023-08-07T00:16:57;3.85;;;1.80;;
31347;SDS011;21711;49.708;18.568;2023-08-07T00:19:24;3.08;;;2.10;;
31347;SDS011;21711;49.708;18.568;2023-08-07T00:21:52;2.60;;;1.85;;
31347;SDS011;21711;49.708;18.568;2023-08-07T00:24:19;3.67;;;1.65;;
31347;SDS011;21711;49.708;18.568;2023-08-07T00:26:47;3.33;;;2.05;;
31347;SDS011;21711;49.708;18.568;2023-08-07T00:29:14;2.40;;;2.00;;
31347;SDS011;21711;49.708;18.568;2023-08-07T00:31:41;3.55;;;2.15;;
31347;SDS011;21711;49.708;18.568;2023-08-07T00:34:09;2.28;;;1.80;;
31347;SDS011;21711;49.708;18.568;2023-08-07T00:36:36;2.17;;;1.58;;
31347;SDS011;21711;49.708;18.568;2023-08-07T00:39:03;5.20;;;1.60;;
31347;SDS011;21711;49.708;18.568;2023-08-07T00:41:31;8.32;;;2.05;;
31347;SDS011;21711;49.708;18.568;2023-08-07T00:43:58;4.25;;;2.40;;
31347;SDS011;21711;49.708;18.568;2023-08-07T00:46:26;4.78;;;2.40;;
31347;SDS011;21711;49.708;18.568;2023-08-07T00:48:55;2.85;;;1.98;;
31347;SDS011;21711;49.708;18.568;2023-08-07T00:51:23;2.92;;;1.63;;
31347;SDS011;21711;49.708;18.568;2023-08-07T00:53:50;5.72;;;2.15;;
31347;SDS011;21711;49.708;18.568;2023-08-07T00:56:18;5.93;;;1.80;;
31347;SDS011;21711;49.708;18.568;2023-08-07T00:58:46;2.45;;;1.85;;
31347;SDS011;21711;49.708;18.568;2023-08-07T01:01:13;2.97;;;1.73;;
31347;SDS011;21711;49.708;18.568;2023-08-07T01:03:41;3.10;;;1.45;;
31347;SDS011;21711;49.708;18.568;2023-08-07T01:06:08;2.95;;;1.90;;
31347;SDS011;21711;49.708;18.568;2023-08-07T01:08:36;3.13;;;1.60;;
31347;SDS011;21711;49.708;18.568;2023-08-07T01:17:06;3.75;;;1.58;;
31347;SDS011;21711;49.708;18.568;2023-08-07T01:19:37;0.85;;;0.82;;
31347;SDS011;21711;49.708;18.568;2023-08-07T01:22:09;3.10;;;1.10;;
31347;SDS011;21711;49.708;18.568;2023-08-07T01:24:39;1.60;;;1.02;;
31347;SDS011;21711;49.708;18.568;2023-08-07T01:29:59;3.00;;;1.50;;
31347;SDS011;21711;49.708;18.568;2023-08-07T01:33:09;2.03;;;1.00;;
31347;SDS011;21711;49.708;18.568;2023-08-07T01:35:53;1.50;;;1.02;;
31347;SDS011;21711;49.708;18.568;2023-08-07T01:38:24;1.88;;;1.30;;
31347;SDS011;21711;49.708;18.568;2023-08-07T01:43:23;2.05;;;1.10;;
31347;SDS011;21711;49.708;18.568;2023-08-07T01:45:50;1.20;;;0.90;;
31347;SDS011;21711;49.708;18.568;2023-08-07T01:48:17;3.78;;;0.98;;
31347;SDS011;21711;49.708;18.568;2023-08-07T01:50:45;1.63;;;1.08;;
31347;SDS011;21711;49.708;18.568;2023-08-07T01:53:13;1.20;;;1.10;;
31347;SDS011;21711;49.708;18.568;2023-08-07T01:55:40;1.08;;;0.98;;
31347;SDS011;21711;49.708;18.568;2023-08-07T01:58:08;1.00;;;0.80;;
31347;SDS011;21711;49.708;18.568;2023-08-07T02:00:35;1.30;;;1.13;;
31347;SDS011;21711;49.708;18.568;2023-08-07T02:03:02;2.58;;;0.98;;
31347;SDS011;21711;49.708;18.568;2023-08-07T02:05:30;1.65;;;0.77;;
31347;SDS011;21711;49.708;18.568;2023-08-07T02:07:57;4.30;;;0.98;;
31347;SDS011;21711;49.708;18.568;2023-08-07T02:10:25;1.58;;;0.85;;
31347;SDS011;21711;49.708;18.568;2023-08-07T02:12:52;3.45;;;1.00;;
31347;SDS011;21711;49.708;18.568;2023-08-07T02:15:20;1.20;;;0.52;;
31347;SDS011;21711;49.708;18.568;2023-08-07T02:17:49;4.05;;;0.77;;
31347;SDS011;21711;49.708;18.568;2023-08-07T02:20:17;1.30;;;0.68;;
31347;SDS011;21711;49.708;18.568;2023-08-07T02:22:45;1.27;;;0.65;;
31347;SDS011;21711;49.708;18.568;2023-08-07T02:25:12;2.83;;;0.85;;
31347;SDS011;21711;49.708;18.568;2023-08-07T02:27:39;1.08;;;0.65;;
31347;SDS011;21711;49.708;18.568;2023-08-07T02:30:07;0.80;;;0.70;;
31347;SDS011;21711;49.708;18.568;2023-08-07T02:32:35;1.38;;;0.70;;
31347;SDS011;21711;49.708;18.568;2023-08-07T02:35:02;2.60;;;0.60;;
31347;SDS011;21711;49.708;18.568;2023-08-07T02:37:30;0.88;;;0.70;;
31347;SDS011;21711;49.708;18.568;2023-08-07T02:39:57;2.15;;;0.70;;
31347;SDS011;21711;49.708;18.568;2023-08-07T02:42:25;0.90;;;0.70;;
31347;SDS011;21711;49.708;18.568;2023-08-07T02:44:52;0.77;;;0.60;;
31347;SDS011;21711;49.708;18.568;2023-08-07T02:47:19;6.32;;;0.80;;
31347;SDS011;21711;49.708;18.568;2023-08-07T02:49:46;0.73;;;0.50;;
31347;SDS011;21711;49.708;18.568;2023-08-07T02:52:14;0.95;;;0.68;;
31347;SDS011;21711;49.708;18.568;2023-08-07T02:54:41;3.72;;;1.40;;
31347;SDS011;21711;49.708;18.568;2023-08-07T02:57:08;2.03;;;0.45;;
31347;SDS011;21711;49.708;18.568;2023-08-07T02:59:36;0.90;;;0.77;;
31347;SDS011;21711;49.708;18.568;2023-08-07T03:02:03;5.80;;;1.38;;
31347;SDS011;21711;49.708;18.568;2023-08-07T03:04:31;2.83;;;0.32;;
31347;SDS011;21711;49.708;18.568;2023-08-07T03:06:58;0.85;;;0.30;;
31347;SDS011;21711;49.708;18.568;2023-08-07T03:09:26;3.28;;;0.22;;
31347;SDS011;21711;49.708;18.568;2023-08-07T03:11:54;0.40;;;0.30;;
31347;SDS011;21711;49.708;18.568;2023-08-07T03:14:22;0.20;;;0.20;;
31347;SDS011;21711;49.708;18.568;2023-08-07T03:16:49;0.40;;;0.20;;
31347;SDS011;21711;49.708;18.568;2023-08-07T03:19:16;1.48;;;0.28;;
31347;SDS011;21711;49.708;18.568;2023-08-07T03:21:48;1.23;;;0.30;;
31347;SDS011;21711;49.708;18.568;2023-08-07T03:24:15;2.05;;;0.22;;
31347;SDS011;21711;49.708;18.568;2023-08-07T03:26:42;0.20;;;0.10;;
31347;SDS011;21711;49.708;18.568;2023-08-07T03:29:12;0.10;;;0.10;;
31347;SDS011;21711;49.708;18.568;2023-08-07T03:31:41;2.60;;;0.75;;
31347;SDS011;21711;49.708;18.568;2023-08-07T03:34:09;0.10;;;0.10;;
31347;SDS011;21711;49.708;18.568;2023-08-07T03:36:36;0.08;;;0.08;;
31347;SDS011;21711;49.708;18.568;2023-08-07T03:39:04;0.52;;;0.10;;
31347;SDS011;21711;49.708;18.568;2023-08-07T03:41:32;1.23;;;0.20;;
31347;SDS011;21711;49.708;18.568;2023-08-07T03:43:59;1.98;;;0.20;;
31347;SDS011;21711;49.708;18.568;2023-08-07T03:46:27;0.13;;;0.10;;
31347;SDS011;21711;49.708;18.568;2023-08-07T03:48:55;1.60;;;0.10;;
31347;SDS011;21711;49.708;18.568;2023-08-07T03:51:23;3.35;;;0.20;;
31347;SDS011;21711;49.708;18.568;2023-08-07T03:53:52;2.05;;;0.10;;
31347;SDS011;21711;49.708;18.568;2023-08-07T03:56:20;0.05;;;0.00;;
31347;SDS011;21711;49.708;18.568;2023-08-07T03:58:48;0.50;;;0.10;;
31347;SDS011;21711;49.708;18.568;2023-08-07T04:01:18;0.10;;;0.05;;
31347;SDS011;21711;49.708;18.568;2023-08-07T04:03:46;0.40;;;0.20;;
31347;SDS011;21711;49.708;18.568;2023-08-07T04:06:15;0.20;;;0.03;;
31347;SDS011;21711;49.708;18.568;2023-08-07T04:08:44;0.63;;;0.13;;
31347;SDS011;21711;49.708;18.568;2023-08-07T04:11:12;1.93;;;0.20;;
31347;SDS011;21711;49.708;18.568;2023-08-07T04:13:39;0.20;;;0.10;;
31347;SDS011;21711;49.708;18.568;2023-08-07T04:16:07;0.30;;;0.20;;
31347;SDS011;21711;49.708;18.568;2023-08-07T04:18:35;0.10;;;0.05;;
31347;SDS011;21711;49.708;18.568;2023-08-07T04:21:02;0.10;;;0.10;;
31347;SDS011;21711;49.708;18.568;2023-08-07T04:23:30;3.63;;;0.20;;
31347;SDS011;21711;49.708;18.568;2023-08-07T04:25:58;0.13;;;0.10;;
31347;SDS011;21711;49.708;18.568;2023-08-07T04:28:29;1.38;;;0.15;;
31347;SDS011;21711;49.708;18.568;2023-08-07T04:33:24;0.10;;;0.10;;
31347;SDS011;21711;49.708;18.568;2023-08-07T04:35:51;0.00;;;0.00;;
31347;SDS011;21711;49.708;18.568;2023-08-07T04:38:19;0.15;;;0.15;;
31347;SDS011;21711;49.708;18.568;2023-08-07T04:40:46;3.72;;;0.00;;
31347;SDS011;21711;49.708;18.568;2023-08-07T04:43:15;0.10;;;0.00;;
31347;SDS011;21711;49.708;18.568;2023-08-07T04:45:44;0.10;;;0.00;;
31347;SDS011;21711;49.708;18.568;2023-08-07T04:48:12;1.08;;;0.00;;
31347;SDS011;21711;49.708;18.568;2023-08-07T04:50:41;0.80;;;0.10;;
31347;SDS011;21711;49.708;18.568;2023-08-07T04:53:08;0.52;;;0.10;;
31347;SDS011;21711;49.708;18.568;2023-08-07T04:55:36;2.08;;;0.10;;
31347;SDS011;21711;49.708;18.568;2023-08-07T04:58:03;0.95;;;0.15;;
31347;SDS011;21711;49.708;18.568;2023-08-07T05:00:31;3.60;;;0.10;;
31347;SDS011;21711;49.708;18.568;2023-08-07T05:02:58;0.10;;;0.10;;
31347;SDS011;21711;49.708;18.568;2023-08-07T05:05:26;0.88;;;0.10;;
31347;SDS011;21711;49.708;18.568;2023-08-07T05:07:54;0.08;;;0.00;;
31347;SDS011;21711;49.708;18.568;2023-08-07T05:10:22;0.50;;;0.10;;
31347;SDS011;21711;49.708;18.568;2023-08-07T05:12:49;1.67;;;0.25;;
31347;SDS011;21711;49.708;18.568;2023-08-07T05:15:22;0.65;;;0.20;;
31347;SDS011;21711;49.708;18.568;2023-08-07T05:17:51;0.75;;;0.10;;
31347;SDS011;21711;49.708;18.568;2023-08-07T05:20:18;0.52;;;0.13;;
31347;SDS011;21711;49.708;18.568;2023-08-07T05:22:46;0.20;;;0.10;;
31347;SDS011;21711;49.708;18.568;2023-08-07T05:25:14;0.20;;;0.00;;
31347;SDS011;21711;49.708;18.568;2023-08-07T05:27:42;1.95;;;0.47;;
31347;SDS011;21711;49.708;18.568;2023-08-07T05:30:12;0.03;;;0.00;;
31347;SDS011;21711;49.708;18.568;2023-08-07T05:32:41;0.30;;;0.10;;
31347;SDS011;21711;49.708;18.568;2023-08-07T05:35:09;0.57;;;0.17;;
31347;SDS011;21711;49.708;18.568;2023-08-07T05:37:37;0.40;;;0.20;;
31347;SDS011;21711;49.708;18.568;2023-08-07T05:40:04;0.00;;;0.00;;
31347;SDS011;21711;49.708;18.568;2023-08-07T05:42:33;0.22;;;0.10;;
31347;SDS011;21711;49.708;18.568;2023-08-07T05:45:01;0.68;;;0.10;;
31347;SDS011;21711;49.708;18.568;2023-08-07T05:47:31;3.30;;;0.28;;
31347;SDS011;21711;49.708;18.568;2023-08-07T05:49:59;0.38;;;0.32;;
31347;SDS011;21711;49.708;18.568;2023-08-07T05:52:27;1.00;;;0.20;;
31347;SDS011;21711;49.708;18.568;2023-08-07T05:54:54;1.95;;;0.20;;
31347;SDS011;21711;49.708;18.568;2023-08-07T05:57:22;1.42;;;0.47;;
31347;SDS011;21711;49.708;18.568;2023-08-07T05:59:49;0.50;;;0.20;;
31347;SDS011;21711;49.708;18.568;2023-08-07T06:02:16;2.63;;;0.15;;
31347;SDS011;21711;49.708;18.568;2023-08-07T06:04:44;1.25;;;0.20;;
31347;SDS011;21711;49.708;18.568;2023-08-07T06:07:11;0.38;;;0.03;;
31347;SDS011;21711;49.708;18.568;2023-08-07T06:09:39;0.10;;;0.00;;
31347;SDS011;21711;49.708;18.568;2023-08-07T06:12:06;0.75;;;0.00;;
31347;SDS011;21711;49.708;18.568;2023-08-07T06:14:34;1.20;;;0.10;;
31347;SDS011;21711;49.708;18.568;2023-08-07T06:17:01;0.65;;;0.10;;
31347;SDS011;21711;49.708;18.568;2023-08-07T06:19:29;0.15;;;0.10;;
31347;SDS011;21711;49.708;18.568;2023-08-07T06:21:58;2.40;;;0.05;;
31347;SDS011;21711;49.708;18.568;2023-08-07T06:24:27;1.48;;;0.10;;
31347;SDS011;21711;49.708;18.568;2023-08-07T06:26:55;0.35;;;0.10;;
31347;SDS011;21711;49.708;18.568;2023-08-07T06:29:22;1.45;;;0.10;;
31347;SDS011;21711;49.708;18.568;2023-08-07T06:31:50;0.25;;;0.13;;
31347;SDS011;21711;49.708;18.568;2023-08-07T06:34:17;2.38;;;0.10;;
31347;SDS011;21711;49.708;18.568;2023-08-07T06:36:44;0.63;;;0.13;;
31347;SDS011;21711;49.708;18.568;2023-08-07T06:39:12;0.43;;;0.00;;
31347;SDS011;21711;49.708;18.568;2023-08-07T06:41:39;0.10;;;0.08;;
31347;SDS011;21711;49.708;18.568;2023-08-07T06:44:07;0.10;;;0.03;;
31347;SDS011;21711;49.708;18.568;2023-08-07T06:46:35;1.20;;;0.08;;
31347;SDS011;21711;49.708;18.568;2023-08-07T06:49:02;0.88;;;0.10;;
31347;SDS011;21711;49.708;18.568;2023-08-07T06:51:30;0.15;;;0.00;;
31347;SDS011;21711;49.708;18.568;2023-08-07T06:53:57;1.83;;;0.00;;
31347;SDS011;21711;49.708;18.568;2023-08-07T06:56:25;1.95;;;0.10;;
31347;SDS011;21711;49.708;18.568;2023-08-07T06:58:52;0.45;;;0.10;;
31347;SDS011;21711;49.708;18.568;2023-08-07T07:01:19;0.82;;;0.20;;
31347;SDS011;21711;49.708;18.568;2023-08-07T07:03:47;1.50;;;0.30;;
31347;SDS011;21711;49.708;18.568;2023-08-07T07:06:19;0.57;;;0.30;;
31347;SDS011;21711;49.708;18.568;2023-08-07T07:08:47;1.02;;;0.17;;
31347;SDS011;21711;49.708;18.568;2023-08-07T07:11:15;2.08;;;0.10;;
31347;SDS011;21711;49.708;18.568;2023-08-07T07:13:42;1.70;;;0.10;;
31347;SDS011;21711;49.708;18.568;2023-08-07T07:16:09;0.13;;;0.03;;
31347;SDS011;21711;49.708;18.568;2023-08-07T07:18:38;0.65;;;0.10;;
31347;SDS011;21711;49.708;18.568;2023-08-07T07:21:06;0.30;;;0.10;;
31347;SDS011;21711;49.708;18.568;2023-08-07T07:23:33;0.10;;;0.03;;
31347;SDS011;21711;49.708;18.568;2023-08-07T07:26:01;0.40;;;0.20;;
31347;SDS011;21711;49.708;18.568;2023-08-07T07:28:28;0.55;;;0.45;;
31347;SDS011;21711;49.708;18.568;2023-08-07T07:30:55;0.20;;;0.00;;
31347;SDS011;21711;49.708;18.568;2023-08-07T07:33:23;0.10;;;0.10;;
31347;SDS011;21711;49.708;18.568;2023-08-07T07:35:50;0.52;;;0.10;;
31347;SDS011;21711;49.708;18.568;2023-08-07T07:38:18;0.82;;;0.10;;
31347;SDS011;21711;49.708;18.568;2023-08-07T07:40:45;0.45;;;0.15;;
31347;SDS011;21711;49.708;18.568;2023-08-07T07:43:13;0.13;;;0.03;;
31347;SDS011;21711;49.708;18.568;2023-08-07T07:45:41;0.22;;;0.03;;
31347;SDS011;21711;49.708;18.568;2023-08-07T07:48:10;0.07;;;0.07;;
31347;SDS011;21711;49.708;18.568;2023-08-07T07:50:38;0.05;;;0.00;;
31347;SDS011;21711;49.708;18.568;2023-08-07T07:53:05;1.15;;;0.85;;
31347;SDS011;21711;49.708;18.568;2023-08-07T07:55:33;1.08;;;0.00;;
31347;SDS011;21711;49.708;18.568;2023-08-07T07:58:00;0.65;;;0.20;;
31347;SDS011;21711;49.708;18.568;2023-08-07T08:00:28;0.10;;;0.00;;
31347;SDS011;21711;49.708;18.568;2023-08-07T08:02:55;0.47;;;0.13;;
31347;SDS011;21711;49.708;18.568;2023-08-07T08:05:22;0.22;;;0.15;;
31347;SDS011;21711;49.708;18.568;2023-08-07T08:07:50;0.50;;;0.20;;
31347;SDS011;21711;49.708;18.568;2023-08-07T08:10:17;0.17;;;0.00;;
31347;SDS011;21711;49.708;18.568;2023-08-07T08:12:45;0.85;;;0.10;;
31347;SDS011;21711;49.708;18.568;2023-08-07T08:15:12;0.70;;;0.20;;
31347;SDS011;21711;49.708;18.568;2023-08-07T08:17:40;1.00;;;0.10;;
31347;SDS011;21711;49.708;18.568;2023-08-07T08:20:07;0.10;;;0.10;;
31347;SDS011;21711;49.708;18.568;2023-08-07T08:22:35;0.25;;;0.08;;
31347;SDS011;21711;49.708;18.568;2023-08-07T08:25:03;2.17;;;0.20;;
31347;SDS011;21711;49.708;18.568;2023-08-07T08:27:31;1.27;;;0.10;;
31347;SDS011;21711;49.708;18.568;2023-08-07T08:29:58;0.10;;;0.10;;
31347;SDS011;21711;49.708;18.568;2023-08-07T08:32:26;0.38;;;0.20;;
31347;SDS011;21711;49.708;18.568;2023-08-07T08:34:53;0.80;;;0.15;;
31347;SDS011;21711;49.708;18.568;2023-08-07T08:37:21;0.50;;;0.20;;
31347;SDS011;21711;49.708;18.568;2023-08-07T08:39:49;0.32;;;0.10;;
31347;SDS011;21711;49.708;18.568;2023-08-07T08:42:16;0.60;;;0.10;;
31347;SDS011;21711;49.708;18.568;2023-08-07T08:44:53;0.10;;;0.10;;
31347;SDS011;21711;49.708;18.568;2023-08-07T08:47:25;0.30;;;0.20;;
31347;SDS011;21711;49.708;18.568;2023-08-07T08:49:54;0.20;;;0.10;;
31347;SDS011;21711;49.708;18.568;2023-08-07T08:52:29;0.35;;;0.10;;
31347;SDS011;21711;49.708;18.568;2023-08-07T08:54:59;1.88;;;0.20;;
31347;SDS011;21711;49.708;18.568;2023-08-07T08:57:28;0.20;;;0.08;;
31347;SDS011;21711;49.708;18.568;2023-08-07T08:59:56;2.38;;;0.20;;
31347;SDS011;21711;49.708;18.568;2023-08-07T09:02:24;0.17;;;0.10;;
31347;SDS011;21711;49.708;18.568;2023-08-07T09:04:52;0.10;;;0.10;;
31347;SDS011;21711;49.708;18.568;2023-08-07T09:07:20;0.20;;;0.10;;
31347;SDS011;21711;49.708;18.568;2023-08-07T09:09:48;0.75;;;0.10;;
31347;SDS011;21711;49.708;18.568;2023-08-07T09:12:19;1.77;;;0.10;;
31347;SDS011;21711;49.708;18.568;2023-08-07T09:14:50;0.20;;;0.20;;
31347;SDS011;21711;49.708;18.568;2023-08-07T09:17:33;0.20;;;0.10;;
31347;SDS011;21711;49.708;18.568;2023-08-07T09:20:06;0.20;;;0.10;;
31347;SDS011;21711;49.708;18.568;2023-08-07T09:22:41;1.75;;;0.20;;
31347;SDS011;21711;49.708;18.568;2023-08-07T09:25:09;0.93;;;0.10;;
31347;SDS011;21711;49.708;18.568;2023-08-07T09:27:36;0.20;;;0.10;;
31347;SDS011;21711;49.708;18.568;2023-08-07T09:30:05;0.32;;;0.00;;
31347;SDS011;21711;49.708;18.568;2023-08-07T09:32:36;0.10;;;0.10;;
31347;SDS011;21711;49.708;18.568;2023-08-07T09:35:05;0.30;;;0.10;;
31347;SDS011;21711;49.708;18.568;2023-08-07T09:37:35;1.15;;;0.10;;
31347;SDS011;21711;49.708;18.568;2023-08-07T09:40:05;0.35;;;0.10;;
31347;SDS011;21711;49.708;18.568;2023-08-07T09:42:36;0.40;;;0.10;;
31347;SDS011;21711;49.708;18.568;2023-08-07T09:45:18;0.20;;;0.10;;
31347;SDS011;21711;49.708;18.568;2023-08-07T09:47:59;1.35;;;0.20;;
31347;SDS011;21711;49.708;18.568;2023-08-07T09:50:29;0.43;;;0.43;;
31347;SDS011;21711;49.708;18.568;2023-08-07T09:52:58;0.50;;;0.10;;
31347;SDS011;21711;49.708;18.568;2023-08-07T09:55:26;0.68;;;0.10;;
31347;SDS011;21711;49.708;18.568;2023-08-07T09:57:54;2.75;;;1.55;;
31347;SDS011;21711;49.708;18.568;2023-08-07T10:00:22;0.50;;;0.30;;
31347;SDS011;21711;49.708;18.568;2023-08-07T10:02:50;0.10;;;0.10;;
31347;SDS011;21711;49.708;18.568;2023-08-07T10:05:18;4.70;;;0.30;;
31347;SDS011;21711;49.708;18.568;2023-08-07T10:07:45;0.13;;;0.00;;
31347;SDS011;21711;49.708;18.568;2023-08-07T10:10:15;1.08;;;0.10;;
31347;SDS011;21711;49.708;18.568;2023-08-07T10:12:43;0.00;;;0.00;;
31347;SDS011;21711;49.708;18.568;2023-08-07T10:15:14;0.17;;;0.08;;
31347;SDS011;21711;49.708;18.568;2023-08-07T10:17:42;1.02;;;0.55;;
31347;SDS011;21711;49.708;18.568;2023-08-07T10:20:11;0.28;;;0.10;;
31347;SDS011;21711;49.708;18.568;2023-08-07T10:22:39;0.00;;;0.00;;
31347;SDS011;21711;49.708;18.568;2023-08-07T10:25:09;0.30;;;0.10;;
31347;SDS011;21711;49.708;18.568;2023-08-07T10:27:37;0.10;;;0.00;;
31347;SDS011;21711;49.708;18.568;2023-08-07T10:30:10;3.03;;;0.30;;
31347;SDS011;21711;49.708;18.568;2023-08-07T10:32:41;0.30;;;0.00;;
31347;SDS011;21711;49.708;18.568;2023-08-07T10:35:22;0.10;;;0.05;;
31347;SDS011;21711;49.708;18.568;2023-08-07T10:38:06;0.50;;;0.30;;
31347;SDS011;21711;49.708;18.568;2023-08-07T10:43:45;0.00;;;0.00;;
31347;SDS011;21711;49.708;18.568;2023-08-07T10:46:20;0.00;;;0.00;;
31347;SDS011;21711;49.708;18.568;2023-08-07T10:48:54;0.22;;;0.10;;
31347;SDS011;21711;49.708;18.568;2023-08-07T10:51:29;1.27;;;0.10;;
31347;SDS011;21711;49.708;18.568;2023-08-07T10:54:00;0.08;;;0.08;;
31347;SDS011;21711;49.708;18.568;2023-08-07T10:56:32;0.50;;;0.20;;
31347;SDS011;21711;49.708;18.568;2023-08-07T10:59:10;1.55;;;0.43;;
31347;SDS011;21711;49.708;18.568;2023-08-07T11:01:40;2.75;;;0.30;;
31347;SDS011;21711;49.708;18.568;2023-08-07T11:04:10;1.58;;;0.00;;
31347;SDS011;21711;49.708;18.568;2023-08-07T11:06:41;0.30;;;0.10;;
31347;SDS011;21711;49.708;18.568;2023-08-07T11:09:13;0.47;;;0.00;;
31347;SDS011;21711;49.708;18.568;2023-08-07T11:11:42;0.10;;;0.00;;
31347;SDS011;21711;49.708;18.568;2023-08-07T11:14:20;0.17;;;0.10;;
31347;SDS011;21711;49.708;18.568;2023-08-07T11:16:48;0.20;;;0.10;;
31347;SDS011;21711;49.708;18.568;2023-08-07T11:19:16;0.40;;;0.10;;
31347;SDS011;21711;49.708;18.568;2023-08-07T11:21:45;0.30;;;0.17;;
31347;SDS011;21711;49.708;18.568;2023-08-07T11:24:14;0.00;;;0.00;;
31347;SDS011;21711;49.708;18.568;2023-08-07T11:26:45;0.28;;;0.10;;
31347;SDS011;21711;49.708;18.568;2023-08-07T11:29:17;0.85;;;0.20;;
31347;SDS011;21711;49.708;18.568;2023-08-07T11:31:45;0.75;;;0.17;;
31347;SDS011;21711;49.708;18.568;2023-08-07T11:34:14;0.40;;;0.10;;
31347;SDS011;21711;49.708;18.568;2023-08-07T11:36:46;0.52;;;0.10;;
31347;SDS011;21711;49.708;18.568;2023-08-07T11:39:14;0.65;;;0.43;;
31347;SDS011;21711;49.708;18.568;2023-08-07T11:41:43;1.25;;;0.40;;
31347;SDS011;21711;49.708;18.568;2023-08-07T11:44:12;2.83;;;0.80;;
31347;SDS011;21711;49.708;18.568;2023-08-07T11:46:39;1.35;;;0.80;;
31347;SDS011;21711;49.708;18.568;2023-08-07T11:49:07;1.65;;;0.73;;
31347;SDS011;21711;49.708;18.568;2023-08-07T11:51:36;5.00;;;0.80;;
31347;SDS011;21711;49.708;18.568;2023-08-07T11:54:04;3.60;;;1.13;;
31347;SDS011;21711;49.708;18.568;2023-08-07T11:56:31;5.65;;;1.05;;
31347;SDS011;21711;49.708;18.568;2023-08-07T11:58:59;1.83;;;1.00;;
31347;SDS011;21711;49.708;18.568;2023-08-07T12:01:29;0.98;;;0.70;;
31347;SDS011;21711;49.708;18.568;2023-08-07T12:06:33;1.38;;;0.60;;
31347;SDS011;21711;49.708;18.568;2023-08-07T12:09:02;2.47;;;0.95;;
31347;SDS011;21711;49.708;18.568;2023-08-07T12:11:30;4.30;;;1.00;;
31347;SDS011;21711;49.708;18.568;2023-08-07T12:13:59;1.98;;;0.90;;
31347;SDS011;21711;49.708;18.568;2023-08-07T12:16:34;3.60;;;1.27;;
31347;SDS011;21711;49.708;18.568;2023-08-07T12:19:02;2.05;;;1.00;;
31347;SDS011;21711;49.708;18.568;2023-08-07T12:21:31;5.97;;;1.50;;
31347;SDS011;21711;49.708;18.568;2023-08-07T12:24:00;2.40;;;1.10;;
31347;SDS011;21711;49.708;18.568;2023-08-07T12:26:27;5.00;;;1.30;;
31347;SDS011;21711;49.708;18.568;2023-08-07T12:28:54;10.80;;;2.35;;
31347;SDS011;21711;49.708;18.568;2023-08-07T12:31:22;5.53;;;2.28;;
31347;SDS011;21711;49.708;18.568;2023-08-07T12:33:49;7.18;;;3.15;;
31347;SDS011;21711;49.708;18.568;2023-08-07T12:36:18;4.97;;;2.47;;
31347;SDS011;21711;49.708;18.568;2023-08-07T12:38:46;3.83;;;2.63;;
31347;SDS011;21711;49.708;18.568;2023-08-07T12:41:14;5.03;;;1.40;;
31347;SDS011;21711;49.708;18.568;2023-08-07T12:43:44;2.25;;;1.27;;
31347;SDS011;21711;49.708;18.568;2023-08-07T12:46:12;3.75;;;1.20;;
31347;SDS011;21711;49.708;18.568;2023-08-07T12:48:44;2.30;;;1.08;;
31347;SDS011;21711;49.708;18.568;2023-08-07T12:51:11;3.92;;;1.15;;
31347;SDS011;21711;49.708;18.568;2023-08-07T12:53:39;3.85;;;1.58;;
31347;SDS011;21711;49.708;18.568;2023-08-07T12:56:06;3.20;;;1.50;;
31347;SDS011;21711;49.708;18.568;2023-08-07T12:58:33;2.83;;;1.40;;
31347;SDS011;21711;49.708;18.568;2023-08-07T13:01:01;3.08;;;1.40;;
31347;SDS011;21711;49.708;18.568;2023-08-07T13:03:28;2.20;;;1.02;;
31347;SDS011;21711;49.708;18.568;2023-08-07T13:05:56;8.20;;;2.33;;
31347;SDS011;21711;49.708;18.568;2023-08-07T13:08:23;2.05;;;1.30;;
31347;SDS011;21711;49.708;18.568;2023-08-07T13:10:51;2.45;;;1.40;;
31347;SDS011;21711;49.708;18.568;2023-08-07T13:13:18;2.38;;;1.35;;
31347;SDS011;21711;49.708;18.568;2023-08-07T13:15:46;1.42;;;1.00;;
31347;SDS011;21711;49.708;18.568;2023-08-07T13:18:13;3.72;;;1.50;;
31347;SDS011;21711;49.708;18.568;2023-08-07T13:20:43;3.63;;;1.30;;
31347;SDS011;21711;49.708;18.568;2023-08-07T13:23:10;5.55;;;1.10;;
31347;SDS011;21711;49.708;18.568;2023-08-07T13:25:40;2.42;;;1.10;;
31347;SDS011;21711;49.708;18.568;2023-08-07T13:28:08;5.03;;;1.08;;
31347;SDS011;21711;49.708;18.568;2023-08-07T13:30:35;2.60;;;1.30;;
31347;SDS011;21711;49.708;18.568;2023-08-07T13:33:03;7.65;;;1.58;;
31347;SDS011;21711;49.708;18.568;2023-08-07T13:35:31;4.63;;;1.50;;
31347;SDS011;21711;49.708;18.568;2023-08-07T13:37:59;1.75;;;1.10;;
31347;SDS011;21711;49.708;18.568;2023-08-07T13:40:31;7.70;;;1.38;;
31347;SDS011;21711;49.708;18.568;2023-08-07T13:43:00;1.15;;;0.80;;
31347;SDS011;21711;49.708;18.568;2023-08-07T13:45:34;3.58;;;0.93;;
31347;SDS011;21711;49.708;18.568;2023-08-07T13:48:03;1.50;;;0.80;;
31347;SDS011;21711;49.708;18.568;2023-08-07T13:50:33;1.40;;;0.65;;
31347;SDS011;21711;49.708;18.568;2023-08-07T13:53:00;3.72;;;1.52;;
31347;SDS011;21711;49.708;18.568;2023-08-07T13:55:40;1.95;;;0.43;;
31347;SDS011;21711;49.708;18.568;2023-08-07T13:58:07;3.22;;;0.60;;
31347;SDS011;21711;49.708;18.568;2023-08-07T14:00:36;5.05;;;0.50;;
31347;SDS011;21711;49.708;18.568;2023-08-07T14:03:05;1.98;;;0.85;;
31347;SDS011;21711;49.708;18.568;2023-08-07T14:05:33;1.13;;;0.43;;
31347;SDS011;21711;49.708;18.568;2023-08-07T14:08:00;1.33;;;0.60;;
31347;SDS011;21711;49.708;18.568;2023-08-07T14:10:29;2.90;;;0.70;;
31347;SDS011;21711;49.708;18.568;2023-08-07T14:12:56;2.15;;;0.40;;
31347;SDS011;21711;49.708;18.568;2023-08-07T14:15:23;2.10;;;0.73;;
31347;SDS011;21711;49.708;18.568;2023-08-07T14:17:51;1.35;;;0.50;;
31347;SDS011;21711;49.708;18.568;2023-08-07T14:20:20;3.13;;;0.75;;
31347;SDS011;21711;49.708;18.568;2023-08-07T14:22:49;1.00;;;0.60;;
31347;SDS011;21711;49.708;18.568;2023-08-07T14:25:25;1.10;;;0.70;;
31347;SDS011;21711;49.708;18.568;2023-08-07T14:27:53;5.22;;;0.70;;
31347;SDS011;21711;49.708;18.568;2023-08-07T14:30:20;2.70;;;0.60;;
31347;SDS011;21711;49.708;18.568;2023-08-07T14:32:48;3.90;;;0.70;;
31347;SDS011;21711;49.708;18.568;2023-08-07T14:35:16;2.05;;;0.70;;
31347;SDS011;21711;49.708;18.568;2023-08-07T14:37:44;3.58;;;0.70;;
31347;SDS011;21711;49.708;18.568;2023-08-07T14:40:14;4.35;;;0.90;;
31347;SDS011;21711;49.708;18.568;2023-08-07T14:42:41;2.00;;;0.90;;
31347;SDS011;21711;49.708;18.568;2023-08-07T14:45:09;4.63;;;1.13;;
31347;SDS011;21711;49.708;18.568;2023-08-07T14:47:36;3.40;;;0.98;;
31347;SDS011;21711;49.708;18.568;2023-08-07T14:50:04;2.83;;;0.90;;
31347;SDS011;21711;49.708;18.568;2023-08-07T14:52:32;2.80;;;0.70;;
31347;SDS011;21711;49.708;18.568;2023-08-07T14:54:59;1.88;;;0.90;;
31347;SDS011;21711;49.708;18.568;2023-08-07T14:57:28;1.40;;;0.98;;
31347;SDS011;21711;49.708;18.568;2023-08-07T14:59:55;1.40;;;0.85;;
31347;SDS011;21711;49.708;18.568;2023-08-07T15:02:22;0.85;;;0.68;;